createdAt,value
2022-10-11T00:00:49.488Z,8.57
2022-10-11T00:05:53.964Z,8.75
2022-10-11T00:11:00.591Z,8.63
2022-10-11T00:16:09.122Z,8.73
2022-10-11T00:21:15.062Z,9.30
2022-10-11T00:26:20.382Z,9.30
2022-10-11T00:31:24.343Z,8.70
2022-10-11T00:36:28.293Z,8.18
2022-10-11T00:41:33.655Z,8.10
2022-10-11T00:46:38.854Z,9.05
2022-10-11T00:51:47.504Z,7.82
2022-10-11T00:56:55.654Z,8.05
2022-10-11T01:01:59.596Z,7.18
2022-10-11T01:07:03.981Z,8.13
2022-10-11T01:12:16.280Z,7.43
2022-10-11T01:17:25.502Z,6.95
2022-10-11T01:22:47.867Z,6.43
2022-10-11T01:28:15.845Z,6.80
2022-10-11T01:33:25.807Z,7.05
2022-10-11T01:38:35.734Z,6.97
2022-10-11T01:43:40.370Z,7.05
2022-10-11T01:48:53.960Z,7.50
2022-10-11T01:54:10.225Z,7.32
2022-10-11T01:59:24.219Z,8.30
2022-10-11T02:04:33.753Z,6.55
2022-10-11T02:09:45.859Z,7.10
2022-10-11T02:14:51.336Z,7.97
2022-10-11T02:19:58.107Z,7.63
2022-10-11T02:25:05.015Z,7.13
2022-10-11T02:30:10.455Z,7.70
2022-10-11T02:35:16.057Z,7.43
2022-10-11T02:40:22.797Z,7.55
2022-10-11T02:45:29.340Z,7.78
2022-10-11T02:50:34.590Z,8.63
2022-10-11T02:55:38.651Z,8.02
2022-10-11T03:00:42.420Z,7.95
2022-10-11T03:05:47.651Z,6.55
2022-10-11T03:10:51.458Z,7.55
2022-10-11T03:16:03.367Z,6.60
2022-10-11T03:21:09.010Z,7.45
2022-10-11T03:26:12.828Z,8.02
2022-10-11T03:31:18.620Z,7.25
2022-10-11T03:36:23.834Z,7.20
2022-10-11T03:41:27.739Z,5.82
2022-10-11T03:46:31.752Z,7.63
2022-10-11T03:51:37.076Z,7.05
2022-10-11T03:56:40.860Z,6.60
2022-10-11T04:01:44.676Z,7.40
2022-10-11T04:06:49.924Z,6.93
2022-10-11T04:11:53.756Z,6.97
2022-10-11T04:17:00.340Z,7.03
2022-10-11T04:22:06.292Z,7.55
2022-10-11T04:27:10.476Z,7.13
2022-10-11T04:32:14.275Z,7.25
2022-10-11T04:37:19.695Z,6.93
2022-10-11T04:42:23.496Z,7.93
2022-10-11T04:47:27.443Z,7.85
2022-10-11T04:52:32.646Z,7.65
2022-10-11T04:57:36.683Z,9.23
2022-10-11T05:02:40.465Z,9.93
2022-10-11T05:07:45.761Z,8.73
2022-10-11T05:12:49.526Z,7.95
2022-10-11T05:17:53.336Z,7.55
2022-10-11T05:22:58.547Z,8.07
2022-10-11T05:28:02.340Z,8.20
2022-10-11T05:33:06.140Z,7.75
2022-10-11T05:38:11.822Z,8.43
2022-10-11T05:43:15.707Z,6.70
2022-10-11T05:48:19.567Z,6.78
2022-10-11T05:53:24.747Z,7.70
2022-10-11T05:58:28.921Z,6.95
2022-10-11T06:03:32.724Z,7.65
2022-10-11T06:08:37.913Z,7.47
2022-10-11T06:13:42.236Z,7.28
2022-10-11T06:18:46.113Z,7.35
2022-10-11T06:23:54.555Z,6.82
2022-10-11T06:29:00.827Z,6.72
2022-10-11T06:34:04.666Z,6.47
2022-10-11T06:39:09.941Z,7.30
2022-10-11T06:44:14.609Z,7.50
2022-10-11T06:49:23.113Z,6.57
2022-10-11T06:54:28.864Z,6.18
2022-10-11T06:59:32.654Z,6.68
2022-10-11T07:04:36.450Z,6.10
2022-10-11T07:09:41.632Z,6.25
2022-10-11T07:14:45.443Z,6.30
2022-10-11T07:19:49.230Z,5.75
2022-10-11T07:24:54.455Z,5.57
2022-10-11T07:29:58.254Z,6.53
2022-10-11T07:35:02.071Z,5.30
2022-10-11T07:40:11.016Z,5.55
2022-10-11T07:45:14.936Z,5.95
2022-10-11T07:50:18.862Z,5.88
2022-10-11T07:55:24.096Z,6.25
2022-10-11T08:00:27.899Z,6.73
2022-10-11T08:05:32.191Z,5.30
2022-10-11T08:10:39.898Z,5.88
2022-10-11T08:15:43.739Z,5.70
2022-10-11T08:20:48.064Z,7.45
2022-10-11T08:25:58.121Z,7.18
2022-10-11T08:31:02.017Z,5.88
2022-10-11T08:36:07.289Z,6.47
2022-10-11T08:41:31.383Z,6.18
2022-10-11T08:46:38.131Z,6.43
2022-10-11T08:51:44.979Z,6.20
2022-10-11T08:56:51.082Z,5.22
2022-10-11T09:07:05.419Z,5.40
2022-10-11T09:12:19.986Z,4.13
2022-10-11T09:17:33.591Z,4.75
2022-10-11T09:22:44.212Z,4.15
2022-10-11T09:28:02.696Z,4.13
2022-10-11T09:33:13.493Z,4.03
2022-10-11T09:38:30.528Z,4.30
2022-10-11T09:43:35.755Z,4.00
2022-10-11T09:48:42.191Z,4.10
2022-10-11T09:53:59.856Z,4.25
2022-10-11T09:59:27.400Z,4.57
2022-10-11T10:04:31.216Z,6.25
2022-10-11T10:09:35.029Z,4.95
2022-10-11T10:14:40.388Z,5.00
2022-10-11T10:19:51.882Z,4.00
2022-10-11T10:24:56.423Z,4.38
2022-10-11T10:30:16.311Z,3.75
2022-10-11T10:35:28.895Z,4.28
2022-10-11T10:40:39.354Z,4.00
2022-10-11T10:46:06.333Z,4.40
2022-10-11T10:51:19.042Z,4.50
2022-10-11T10:56:26.725Z,4.32
2022-10-11T11:01:33.755Z,4.40
2022-10-11T11:06:41.321Z,4.90
2022-10-11T11:11:54.028Z,4.38
2022-10-11T11:17:06.036Z,4.50
2022-10-11T11:22:14.831Z,4.68
2022-10-11T11:27:27.572Z,4.80
2022-10-11T11:32:44.797Z,5.60
2022-10-11T11:37:56.032Z,4.30
2022-10-11T11:43:05.786Z,4.90
2022-10-11T11:48:15.093Z,5.20
2022-10-11T11:53:20.948Z,4.63
2022-10-11T12:03:34.449Z,5.43
2022-10-11T12:08:41.330Z,5.25
2022-10-11T12:13:52.855Z,4.53
2022-10-11T12:19:03.509Z,4.90
2022-10-11T12:24:12.651Z,4.50
2022-10-11T12:29:43.627Z,4.60
2022-10-11T12:34:49.034Z,4.65
2022-10-11T12:39:54.635Z,4.38
2022-10-11T12:45:35.089Z,4.18
2022-10-11T12:50:46.680Z,3.80
2022-10-11T12:55:53.994Z,3.95
2022-10-11T13:01:18.043Z,4.90
2022-10-11T13:06:25.387Z,3.90
2022-10-11T13:11:32.736Z,4.38
2022-10-11T13:17:00.159Z,4.22
2022-10-11T13:22:07.839Z,3.50
2022-10-11T13:27:17.084Z,3.83
2022-10-11T13:32:23.870Z,3.97
2022-10-11T13:37:30.226Z,4.93
2022-10-11T13:42:34.542Z,3.80
2022-10-11T13:47:38.332Z,4.38
2022-10-11T13:53:00.534Z,3.60
2022-10-11T13:58:16.273Z,4.13
2022-10-11T14:03:22.877Z,3.38
2022-10-11T14:08:31.765Z,3.25
2022-10-11T14:13:37.456Z,3.45
2022-10-11T14:18:49.498Z,3.53
2022-10-11T14:23:56.240Z,4.13
2022-10-11T14:29:01.539Z,4.45
2022-10-11T14:34:06.718Z,3.70
2022-10-11T14:39:16.310Z,3.97
2022-10-11T14:44:21.801Z,3.95
2022-10-11T14:49:27.444Z,4.97
2022-10-11T14:54:33.243Z,5.15
2022-10-11T14:59:39.322Z,6.28
2022-10-11T15:04:43.112Z,7.00
2022-10-11T15:09:48.283Z,6.32
2022-10-11T15:14:52.128Z,6.63
2022-10-11T15:19:55.907Z,7.32
2022-10-11T15:25:01.085Z,11.90
2022-10-11T15:30:08.591Z,11.07
2022-10-11T15:35:12.562Z,11.35
2022-10-11T15:40:23.142Z,10.25
2022-10-11T15:45:28.819Z,8.40
2022-10-11T15:50:37.560Z,8.80
2022-10-11T15:55:44.858Z,7.75
2022-10-11T16:00:50.713Z,8.60
2022-10-11T16:05:55.290Z,8.57
2022-10-11T16:11:00.911Z,9.65
2022-10-11T16:16:05.944Z,9.57
2022-10-11T16:21:11.607Z,8.67
2022-10-11T16:26:17.508Z,8.13
2022-10-11T16:36:36.144Z,9.10
2022-10-11T16:41:41.950Z,8.88
2022-10-11T16:46:48.194Z,9.23
2022-10-11T16:51:52.482Z,8.90
2022-10-11T16:56:57.994Z,7.90
2022-10-11T17:02:02.037Z,7.93
2022-10-11T17:07:12.261Z,8.02
2022-10-11T17:12:19.857Z,9.05
2022-10-11T17:17:23.846Z,7.03
2022-10-11T17:22:27.726Z,7.80
2022-10-11T17:27:33.103Z,8.32
2022-10-11T17:32:36.928Z,8.50
2022-10-11T17:37:40.776Z,8.98
2022-10-11T17:42:47.843Z,9.25
2022-10-11T17:47:51.627Z,10.43
2022-10-11T17:52:55.426Z,11.88
2022-10-11T17:58:00.594Z,8.85
2022-10-11T18:03:04.770Z,10.23
2022-10-11T18:08:08.865Z,8.93
2022-10-11T18:13:15.434Z,8.65
2022-10-11T18:18:19.314Z,9.02
2022-10-11T18:23:23.130Z,8.15
2022-10-11T18:28:28.439Z,8.50
2022-10-11T18:33:32.250Z,8.20
2022-10-11T18:38:37.902Z,30.13
2022-10-11T18:43:43.271Z,8.30
2022-10-11T18:48:48.083Z,7.97
2022-10-11T18:53:52.198Z,8.20
2022-10-11T18:58:58.690Z,7.72
2022-10-11T19:04:03.679Z,8.50
2022-10-11T19:09:09.291Z,8.93
2022-10-11T19:14:18.754Z,8.55
2022-10-11T19:19:23.972Z,8.85
2022-10-11T19:24:29.382Z,8.97
2022-10-11T19:29:34.815Z,8.87
2022-10-11T19:34:38.661Z,8.95
2022-10-11T19:39:42.446Z,8.68
2022-10-11T19:44:47.621Z,8.98
2022-10-11T19:49:51.458Z,8.60
2022-10-11T19:54:55.260Z,7.07
2022-10-11T20:00:00.439Z,7.40
2022-10-11T20:05:04.628Z,7.67
2022-10-11T20:10:08.942Z,7.72
2022-10-11T20:15:14.133Z,7.55
2022-10-11T20:20:19.214Z,7.40
2022-10-11T20:25:23.014Z,7.30
2022-10-11T20:30:28.281Z,8.20
2022-10-11T20:35:32.053Z,7.47
2022-10-11T20:40:35.824Z,6.40
2022-10-11T20:45:41.034Z,6.65
2022-10-11T20:50:45.749Z,7.33
2022-10-11T20:55:49.762Z,6.00
2022-10-11T21:00:54.989Z,7.07
2022-10-11T21:05:59.987Z,7.20
2022-10-11T21:11:04.783Z,7.07
2022-10-11T21:16:12.522Z,7.35
2022-10-11T21:21:16.487Z,7.43
2022-10-11T21:26:20.284Z,7.72
2022-10-11T21:31:27.465Z,7.88
2022-10-11T21:36:35.359Z,8.15
2022-10-11T21:41:42.010Z,7.85
2022-10-11T21:47:06.072Z,7.25
2022-10-11T21:52:11.203Z,7.68
2022-10-11T21:57:15.035Z,7.38
2022-10-11T22:02:20.227Z,7.75
2022-10-11T22:07:24.014Z,5.83
2022-10-11T22:12:27.863Z,8.20
2022-10-11T22:17:33.032Z,7.70
2022-10-11T22:22:37.261Z,8.57
2022-10-11T22:27:41.441Z,8.23
2022-10-11T22:32:46.593Z,8.02
2022-10-11T22:37:51.126Z,8.13
2022-10-11T22:42:54.916Z,8.20
2022-10-11T22:48:00.082Z,8.07
2022-10-11T22:53:03.975Z,8.37
2022-10-11T22:58:07.910Z,7.78
2022-10-11T23:03:15.004Z,7.90
2022-10-11T23:08:18.887Z,7.40
2022-10-11T23:13:22.755Z,8.63
2022-10-11T23:18:28.294Z,8.90
2022-10-11T23:23:32.352Z,9.57
2022-10-11T23:28:36.277Z,9.30
2022-10-11T23:33:41.690Z,10.20
2022-10-11T23:38:45.708Z,9.80
2022-10-11T23:43:49.495Z,8.60
2022-10-11T23:48:54.686Z,10.00
2022-10-11T23:53:58.523Z,10.70
2022-10-11T23:59:02.314Z,9.82
